Terminal Aerodrome Forecast
Issued by NWS Sterling, VA

Current Version | Previous Version | Graphics & Text | Print | Product List | Glossary On
Versions: 1 2 3 4 5 6 7 8 9 10 11 12 13 14 15 16 17 18 19 20
129
FTUS41 KLWX 011722
TAFMRB
TAF
KMRB 011722Z 0118/0218 15007KT P6SM BKN015
     FM012000 14006KT P6SM BKN008
     FM020400 VRB03KT 1SM BR OVC003
     FM020700 VRB03KT 1/2SM FG OVC002
     FM021300 23007KT 3SM BR BKN003
     FM021500 24008KT P6SM BKN008
     FM021700 25009KT P6SM BKN015=

USA.gov is the U.S. government's official web portal to all federal, state and local government web resources and services.